Z E U S — IFWZ — position and weather

sailwx.info

Track history (hours):
 
Tides and Currents Weather Stations Pressure Air Temp Water Temp Dewpoint Dewpoint Depression Visibility Wind Speed Wind Dir Waves Ship Positions

Z E U S

Last reported at 2015-Mar-03 06:33 UTC. Time now 2015-Mar-03 07:26 UTC.
Position N 37°58' E 012°25'.

Length 53 m; draft 2.5 m.

Type: Ship (hazmat cat A). MMSI: 247072100.

Date/timePositionNaut miles runAvg speedWind from/ knotsBaromVisibWave heightAir tempDewpointWater temp
2015-Mar-03 06:33N 37°58' E 012°25'5 4.9
2015-Mar-03 05:33N 38°01' E 012°31'0 0.0
2015-Mar-02 14:34N 38°01' E 012°31'0 0.0
2015-Mar-02 13:34N 38°01' E 012°31'0 0.0
2015-Mar-02 12:33N 38°01' E 012°31'4 4.1
2015-Mar-02 11:33N 37°59' E 012°26'6 5.9
2015-Mar-02 10:33N 37°56' E 012°20'0 0.0
2015-Mar-02 09:34N 37°56' E 012°20'0 0.0
2015-Mar-02 08:33N 37°56' E 012°20'0 0.0
2015-Mar-02 07:33N 37°56' E 012°20'4 4.4
2015-Mar-02 06:33N 37°58' E 012°24'6 5.7
2015-Mar-02 05:33N 38°01' E 012°31'0 0.0
2015-Feb-28 12:24N 38°01' E 012°31'4 4.9
2015-Feb-28 11:33N 37°59' E 012°26'6 5.9
2015-Feb-28 10:33N 37°56' E 012°20'0 0.0
2015-Feb-28 09:33N 37°56' E 012°20'0 0.1
2015-Feb-28 08:33N 37°56' E 012°19'0 0.1
2015-Feb-28 07:33N 37°56' E 012°20'4 4.5
2015-Feb-28 06:33N 37°58' E 012°24'6 5.7
2015-Feb-28 05:33N 38°01' E 012°31'0 0.0
2015-Feb-27 17:23N 38°01' E 012°31'0 0.0
2015-Feb-27 16:33N 38°01' E 012°31'0 0.0
2015-Feb-27 15:33N 38°01' E 012°31'0 0.0
2015-Feb-27 14:33N 38°01' E 012°31'0 0.0
2015-Feb-27 13:34N 38°01' E 012°31'0 0.0
2015-Feb-27 12:34N 38°01' E 012°31'4 4.3
2015-Feb-27 11:34N 37°59' E 012°26'6 5.7
2015-Feb-27 10:33N 37°56' E 012°20'0 0.0
2015-Feb-27 09:33N 37°56' E 012°20'0 0.0
2015-Feb-27 08:33N 37°56' E 012°20'0 0.0
2015-Feb-27 07:33N 37°56' E 012°20'5 5.2
2015-Feb-27 06:32N 37°58' E 012°25'5 4.9
2015-Feb-27 05:33N 38°01' E 012°31'0 0.0
2015-Feb-26 16:33N 38°01' E 012°31'0 0.0
2015-Feb-26 15:33N 38°01' E 012°31'0 0.0
2015-Feb-26 14:33N 38°01' E 012°31'0 0.0
2015-Feb-26 13:33N 38°01' E 012°31'0 0.0
2015-Feb-26 12:33N 38°01' E 012°31'0 0.0
2015-Feb-26 11:33N 38°01' E 012°31'0 0.0
2015-Feb-26 10:33N 38°01' E 012°31'0 0.0
2015-Feb-26 09:33N 38°01' E 012°31'0 0.0
2015-Feb-26 08:33N 38°01' E 012°31'0 0.0
2015-Feb-25 15:33N 38°01' E 012°31'0 0.0
2015-Feb-25 14:33N 38°01' E 012°31'0 0.0
2015-Feb-25 13:33N 38°01' E 012°31'0 0.0
2015-Feb-25 12:34N 38°01' E 012°31'0 0.0
2015-Feb-25 11:33N 38°01' E 012°31'0 0.0
2015-Feb-25 10:33N 38°01' E 012°31'0 0.0
2015-Feb-25 09:33N 38°01' E 012°31'0 0.0
2015-Feb-25 08:33N 38°01' E 012°31'0 0.0
2015-Feb-25 07:33N 38°01' E 012°31'0 0.0
2015-Feb-25 06:33N 38°01' E 012°31'0 0.0
2015-Feb-25 05:33N 38°01' E 012°31'0 0.0
2015-Feb-24 15:33N 38°01' E 012°31'0 0.0
2015-Feb-24 14:34N 38°01' E 012°31'0 0.0
2015-Feb-24 13:34N 38°01' E 012°31'0 0.0
2015-Feb-24 12:33N 38°01' E 012°31'0 0.0
2015-Feb-24 11:34N 38°01' E 012°31'0 0.0
2015-Feb-24 10:34N 38°01' E 012°31'0 0.0
2015-Feb-24 09:33N 38°01' E 012°31'0 0.0
2015-Feb-24 08:33N 38°01' E 012°31'0 0.0
2015-Feb-24 07:33N 38°01' E 012°31'0 0.0
2015-Feb-24 06:33N 38°01' E 012°31'0 0.0
2015-Feb-24 05:33N 38°01' E 012°31'0 0.0
2015-Feb-23 13:33N 38°01' E 012°31'0 0.0
2015-Feb-23 12:33N 38°01' E 012°31'0 0.0
2015-Feb-23 11:33N 38°01' E 012°31'0 0.0
2015-Feb-23 10:33N 38°01' E 012°31'2 1.7
2015-Feb-23 09:33N 37°60' E 012°29'8 8.1
2015-Feb-23 08:33N 37°56' E 012°20'0 0.5
2015-Feb-23 07:33N 37°56' E 012°20'5 4.9
2015-Feb-23 06:33N 37°58' E 012°25'5 5.2
2015-Feb-23 05:33N 38°01' E 012°31'0 0.0
2015-Feb-21 12:33N 38°01' E 012°31'6 5.9
2015-Feb-21 11:33N 37°58' E 012°24'4 4.2
2015-Feb-21 10:33N 37°56' E 012°20'0 0.0
2015-Feb-21 09:33N 37°56' E 012°20'0 0.0
2015-Feb-21 08:33N 37°56' E 012°20'0 0.0
2015-Feb-21 07:33N 37°56' E 012°20'  
Track history (hours):
 
Tides and Currents Weather Stations Pressure Air Temp Water Temp Dewpoint Dewpoint Depression Visibility Wind Speed Wind Dir Waves Ship Positions

Z E U S

Last reported at 2015-Mar-03 06:33 UTC. Time now 2015-Mar-03 07:26 UTC.
Position N 37°58' E 012°25'.

Length 53 m; draft 2.5 m.

Type: Ship (hazmat cat A). MMSI: 247072100.

Date/timePositionNaut miles runAvg speedWind from/ knotsBaromVisibWave heightAir tempDewpointWater temp
2015-Mar-03 06:33N 37°58' E 012°25'5 4.9
2015-Mar-03 05:33N 38°01' E 012°31'0 0.0
2015-Mar-02 14:34N 38°01' E 012°31'0 0.0
2015-Mar-02 13:34N 38°01' E 012°31'0 0.0
2015-Mar-02 12:33N 38°01' E 012°31'4 4.1
2015-Mar-02 11:33N 37°59' E 012°26'6 5.9
2015-Mar-02 10:33N 37°56' E 012°20'0 0.0
2015-Mar-02 09:34N 37°56' E 012°20'0 0.0
2015-Mar-02 08:33N 37°56' E 012°20'0 0.0
2015-Mar-02 07:33N 37°56' E 012°20'4 4.4
2015-Mar-02 06:33N 37°58' E 012°24'6 5.7
2015-Mar-02 05:33N 38°01' E 012°31'0 0.0
2015-Feb-28 12:24N 38°01' E 012°31'4 4.9
2015-Feb-28 11:33N 37°59' E 012°26'6 5.9
2015-Feb-28 10:33N 37°56' E 012°20'0 0.0
2015-Feb-28 09:33N 37°56' E 012°20'0 0.1
2015-Feb-28 08:33N 37°56' E 012°19'0 0.1
2015-Feb-28 07:33N 37°56' E 012°20'4 4.5
2015-Feb-28 06:33N 37°58' E 012°24'6 5.7
2015-Feb-28 05:33N 38°01' E 012°31'0 0.0
2015-Feb-27 17:23N 38°01' E 012°31'0 0.0
2015-Feb-27 16:33N 38°01' E 012°31'0 0.0
2015-Feb-27 15:33N 38°01' E 012°31'0 0.0
2015-Feb-27 14:33N 38°01' E 012°31'0 0.0
2015-Feb-27 13:34N 38°01' E 012°31'0 0.0
2015-Feb-27 12:34N 38°01' E 012°31'4 4.3
2015-Feb-27 11:34N 37°59' E 012°26'6 5.7
2015-Feb-27 10:33N 37°56' E 012°20'0 0.0
2015-Feb-27 09:33N 37°56' E 012°20'0 0.0
2015-Feb-27 08:33N 37°56' E 012°20'0 0.0
2015-Feb-27 07:33N 37°56' E 012°20'5 5.2
2015-Feb-27 06:32N 37°58' E 012°25'5 4.9
2015-Feb-27 05:33N 38°01' E 012°31'0 0.0
2015-Feb-26 16:33N 38°01' E 012°31'0 0.0
2015-Feb-26 15:33N 38°01' E 012°31'0 0.0
2015-Feb-26 14:33N 38°01' E 012°31'0 0.0
2015-Feb-26 13:33N 38°01' E 012°31'0 0.0
2015-Feb-26 12:33N 38°01' E 012°31'0 0.0
2015-Feb-26 11:33N 38°01' E 012°31'0 0.0
2015-Feb-26 10:33N 38°01' E 012°31'0 0.0
2015-Feb-26 09:33N 38°01' E 012°31'0 0.0
2015-Feb-26 08:33N 38°01' E 012°31'0 0.0
2015-Feb-25 15:33N 38°01' E 012°31'0 0.0
2015-Feb-25 14:33N 38°01' E 012°31'0 0.0
2015-Feb-25 13:33N 38°01' E 012°31'0 0.0
2015-Feb-25 12:34N 38°01' E 012°31'0 0.0
2015-Feb-25 11:33N 38°01' E 012°31'0 0.0
2015-Feb-25 10:33N 38°01' E 012°31'0 0.0
2015-Feb-25 09:33N 38°01' E 012°31'0 0.0
2015-Feb-25 08:33N 38°01' E 012°31'0 0.0
2015-Feb-25 07:33N 38°01' E 012°31'0 0.0
2015-Feb-25 06:33N 38°01' E 012°31'0 0.0
2015-Feb-25 05:33N 38°01' E 012°31'0 0.0
2015-Feb-24 15:33N 38°01' E 012°31'0 0.0
2015-Feb-24 14:34N 38°01' E 012°31'0 0.0
2015-Feb-24 13:34N 38°01' E 012°31'0 0.0
2015-Feb-24 12:33N 38°01' E 012°31'0 0.0
2015-Feb-24 11:34N 38°01' E 012°31'0 0.0
2015-Feb-24 10:34N 38°01' E 012°31'0 0.0
2015-Feb-24 09:33N 38°01' E 012°31'0 0.0
2015-Feb-24 08:33N 38°01' E 012°31'0 0.0
2015-Feb-24 07:33N 38°01' E 012°31'0 0.0
2015-Feb-24 06:33N 38°01' E 012°31'0 0.0
2015-Feb-24 05:33N 38°01' E 012°31'0 0.0
2015-Feb-23 13:33N 38°01' E 012°31'0 0.0
2015-Feb-23 12:33N 38°01' E 012°31'0 0.0
2015-Feb-23 11:33N 38°01' E 012°31'0 0.0
2015-Feb-23 10:33N 38°01' E 012°31'2 1.7
2015-Feb-23 09:33N 37°60' E 012°29'8 8.1
2015-Feb-23 08:33N 37°56' E 012°20'0 0.5
2015-Feb-23 07:33N 37°56' E 012°20'5 4.9
2015-Feb-23 06:33N 37°58' E 012°25'5 5.2
2015-Feb-23 05:33N 38°01' E 012°31'0 0.0
2015-Feb-21 12:33N 38°01' E 012°31'6 5.9
2015-Feb-21 11:33N 37°58' E 012°24'4 4.2
2015-Feb-21 10:33N 37°56' E 012°20'0 0.0
2015-Feb-21 09:33N 37°56' E 012°20'0 0.0
2015-Feb-21 08:33N 37°56' E 012°20'0 0.0
2015-Feb-21 07:33N 37°56' E 012°20'  

Dump ship's entire track history